This is the latest recevied weather packets stored in our database for station/object WP4NYS-13. If no packets are shown the sender has not sent any weather packets the latest 10 day(s).
| Time | Temp. | Humidity | Pressure | Rain* | Wind** | Luminosity | Snow |
|---|---|---|---|---|---|---|---|
| 1777493589 | 31.67° C | 48% | 1012.7 hPa | 0 mm | - | - | - |
| 1777493286 | 32.22° C | 47% | 1013.1 hPa | 0 mm | - | - | - |
| 1777492983 | 31.67° C | 47% | 1012.9 hPa | 0 mm | - | - | - |
| 1777492679 | 32.78° C | 45% | 1013 hPa | 0 mm | - | - | - |
| 1777492379 | 32.78° C | 45% | 1013 hPa | 0 mm | - | - | - |
| 1777492077 | 32.78° C | 44% | 1013.4 hPa | 0 mm | - | - | - |
| 1777491773 | 32.78° C | 45% | 1013.4 hPa | 0 mm | - | - | - |
| 1777491470 | 33.33° C | 45% | 1013.5 hPa | 0 mm | - | - | - |
| 1777491167 | 32.78° C | 45% | 1013.3 hPa | 0 mm | - | - | - |
| 1777490863 | 32.22° C | 46% | 1013.3 hPa | 0 mm | - | - | - |
| 1777490559 | 32.78° C | 45% | 1013.5 hPa | 0 mm | - | - | - |
| 1777490256 | 33.33° C | 43% | 1013.4 hPa | 0 mm | - | - | - |
| 1777489953 | 32.78° C | 44% | 1013.4 hPa | 0 mm | - | - | - |
| 1777489651 | 32.22° C | 45% | 1013.7 hPa | 0 mm | - | - | - |
| 1777489347 | 31.67° C | 47% | 1013.9 hPa | 0 mm | - | - | - |
| 1777489044 | 32.22° C | 46% | 1013.9 hPa | 0 mm | - | - | - |
| 1777488741 | 32.78° C | 45% | 1013.9 hPa | 0 mm | - | - | - |
| 1777488438 | 32.78° C | 45% | 1014 hPa | 0 mm | - | - | - |
| 1777488137 | 32.78° C | 44% | 1014.4 hPa | 0 mm | - | - | - |
| 1777487835 | 32.78° C | 45% | 1014.3 hPa | 0 mm | - | - | - |
| 1777487532 | 32.78° C | 45% | 1014.6 hPa | 0 mm | - | - | - |
| 1777487229 | 33.33° C | 45% | 1014.7 hPa | 0 mm | - | - | - |
| 1777486925 | 32.78° C | 45% | 1014.6 hPa | 0 mm | - | - | - |
| 1777486621 | 32.22° C | 48% | 1015 hPa | 0 mm | - | - | - |
| 1777486320 | 32.78° C | 45% | 1014.8 hPa | 0 mm | - | - | - |
* Rain latest hour (hover to see other rain measurements)
** Current wind speed in m/s (hover to see current wind gust speed)